sensor_id;sensor_type;location;lat;lon;timestamp;noise_LAeq;noise_LA_min;noise_LA_max;noise_LA01;noise_LA95
37279;Laerm;7458;49.002;8.472;2022-07-26T00:02:06;51.16;39.92;69.87;;
37279;Laerm;7458;49.002;8.472;2022-07-26T00:04:32;42.00;37.70;46.80;;
37279;Laerm;7458;49.002;8.472;2022-07-26T00:06:57;41.08;36.69;47.34;;
37279;Laerm;7458;49.002;8.472;2022-07-26T00:09:23;40.46;35.66;47.34;;
37279;Laerm;7458;49.002;8.472;2022-07-26T00:11:49;43.44;35.36;55.78;;
37279;Laerm;7458;49.002;8.472;2022-07-26T00:14:15;49.69;36.45;68.74;;
37279;Laerm;7458;49.002;8.472;2022-07-26T00:16:41;41.52;37.12;47.30;;
37279;Laerm;7458;49.002;8.472;2022-07-26T00:19:07;41.42;37.32;47.06;;
37279;Laerm;7458;49.002;8.472;2022-07-26T00:21:34;41.79;37.32;48.70;;
37279;Laerm;7458;49.002;8.472;2022-07-26T00:24:03;42.05;37.32;48.08;;
37279;Laerm;7458;49.002;8.472;2022-07-26T00:26:29;41.47;37.12;47.68;;
37279;Laerm;7458;49.002;8.472;2022-07-26T00:28:55;41.64;36.91;47.59;;
37279;Laerm;7458;49.002;8.472;2022-07-26T00:31:21;41.95;37.12;47.50;;
37279;Laerm;7458;49.002;8.472;2022-07-26T00:33:46;41.57;37.52;47.91;;
37279;Laerm;7458;49.002;8.472;2022-07-26T00:36:12;42.07;37.70;47.63;;
37279;Laerm;7458;49.002;8.472;2022-07-26T00:38:38;41.06;37.12;47.12;;
37279;Laerm;7458;49.002;8.472;2022-07-26T00:41:06;41.53;36.69;47.68;;
37279;Laerm;7458;49.002;8.472;2022-07-26T00:43:32;42.03;37.12;62.63;;
37279;Laerm;7458;49.002;8.472;2022-07-26T00:45:58;41.51;37.52;59.15;;
37279;Laerm;7458;49.002;8.472;2022-07-26T00:48:24;41.58;37.52;48.00;;
37279;Laerm;7458;49.002;8.472;2022-07-26T00:50:53;42.66;38.95;47.98;;
37279;Laerm;7458;49.002;8.472;2022-07-26T00:53:21;43.12;39.21;48.28;;
37279;Laerm;7458;49.002;8.472;2022-07-26T00:55:48;42.48;38.81;48.21;;
37279;Laerm;7458;49.002;8.472;2022-07-26T00:58:16;42.03;37.32;54.96;;
37279;Laerm;7458;49.002;8.472;2022-07-26T01:00:42;41.84;36.69;48.07;;
37279;Laerm;7458;49.002;8.472;2022-07-26T01:03:08;47.62;37.70;65.86;;
37279;Laerm;7458;49.002;8.472;2022-07-26T01:05:34;42.66;38.95;58.04;;
37279;Laerm;7458;49.002;8.472;2022-07-26T01:08:01;42.50;38.67;57.24;;
37279;Laerm;7458;49.002;8.472;2022-07-26T01:10:26;42.21;38.37;52.83;;
37279;Laerm;7458;49.002;8.472;2022-07-26T01:12:53;42.60;38.81;50.08;;
37279;Laerm;7458;49.002;8.472;2022-07-26T01:15:18;42.37;39.08;47.67;;
37279;Laerm;7458;49.002;8.472;2022-07-26T01:17:45;42.57;36.91;49.81;;
37279;Laerm;7458;49.002;8.472;2022-07-26T01:20:13;44.67;40.23;67.79;;
37279;Laerm;7458;49.002;8.472;2022-07-26T01:22:39;44.06;40.23;60.94;;
37279;Laerm;7458;49.002;8.472;2022-07-26T01:25:06;43.17;40.33;56.13;;
37279;Laerm;7458;49.002;8.472;2022-07-26T01:27:32;46.16;40.71;75.84;;
37279;Laerm;7458;49.002;8.472;2022-07-26T01:30:07;44.19;39.46;69.43;;
37279;Laerm;7458;49.002;8.472;2022-07-26T01:32:34;42.55;39.34;58.56;;
37279;Laerm;7458;49.002;8.472;2022-07-26T01:34:59;42.90;38.95;57.09;;
37279;Laerm;7458;49.002;8.472;2022-07-26T01:37:25;48.19;40.62;81.93;;
37279;Laerm;7458;49.002;8.472;2022-07-26T01:39:51;46.00;40.89;76.30;;
37279;Laerm;7458;49.002;8.472;2022-07-26T01:42:17;46.44;40.53;74.90;;
37279;Laerm;7458;49.002;8.472;2022-07-26T01:44:42;44.08;40.03;59.88;;
37279;Laerm;7458;49.002;8.472;2022-07-26T01:47:08;43.62;39.46;57.62;;
37279;Laerm;7458;49.002;8.472;2022-07-26T01:49:34;43.27;39.34;48.94;;
37279;Laerm;7458;49.002;8.472;2022-07-26T01:52:00;43.34;39.21;48.87;;
37279;Laerm;7458;49.002;8.472;2022-07-26T01:54:26;46.90;38.81;63.16;;
37279;Laerm;7458;49.002;8.472;2022-07-26T01:56:51;44.65;38.21;70.34;;
37279;Laerm;7458;49.002;8.472;2022-07-26T01:59:17;43.04;39.81;48.85;;
37279;Laerm;7458;49.002;8.472;2022-07-26T02:01:43;42.77;38.95;48.64;;
37279;Laerm;7458;49.002;8.472;2022-07-26T02:04:09;43.23;39.70;50.22;;
37279;Laerm;7458;49.002;8.472;2022-07-26T02:06:54;42.25;39.08;45.20;;
37279;Laerm;7458;49.002;8.472;2022-07-26T02:09:20;43.18;39.23;48.21;;
37279;Laerm;7458;49.002;8.472;2022-07-26T02:11:46;42.41;38.37;48.48;;
37279;Laerm;7458;49.002;8.472;2022-07-26T02:14:13;42.67;38.67;48.55;;
37279;Laerm;7458;49.002;8.472;2022-07-26T02:16:39;43.03;38.21;48.83;;
37279;Laerm;7458;49.002;8.472;2022-07-26T02:19:05;42.81;36.69;49.12;;
37279;Laerm;7458;49.002;8.472;2022-07-26T02:21:31;43.16;39.21;53.85;;
37279;Laerm;7458;49.002;8.472;2022-07-26T02:23:57;42.88;39.58;48.61;;
37279;Laerm;7458;49.002;8.472;2022-07-26T02:26:22;43.77;38.81;65.05;;
37279;Laerm;7458;49.002;8.472;2022-07-26T02:28:48;42.74;37.88;48.64;;
37279;Laerm;7458;49.002;8.472;2022-07-26T02:31:14;42.95;38.52;48.84;;
37279;Laerm;7458;49.002;8.472;2022-07-26T02:33:40;43.42;39.70;48.69;;
37279;Laerm;7458;49.002;8.472;2022-07-26T02:36:05;43.13;39.21;49.74;;
37279;Laerm;7458;49.002;8.472;2022-07-26T02:38:31;43.25;39.58;49.07;;
37279;Laerm;7458;49.002;8.472;2022-07-26T02:40:57;51.26;40.33;69.40;;
37279;Laerm;7458;49.002;8.472;2022-07-26T02:43:22;43.61;39.58;49.91;;
37279;Laerm;7458;49.002;8.472;2022-07-26T02:45:48;44.06;40.98;53.82;;
37279;Laerm;7458;49.002;8.472;2022-07-26T02:48:14;43.72;39.81;53.67;;
37279;Laerm;7458;49.002;8.472;2022-07-26T02:50:40;43.83;41.30;49.11;;
37279;Laerm;7458;49.002;8.472;2022-07-26T02:53:05;49.13;40.71;65.44;;
37279;Laerm;7458;49.002;8.472;2022-07-26T02:55:31;43.57;40.53;56.70;;
37279;Laerm;7458;49.002;8.472;2022-07-26T02:57:57;43.79;40.62;58.18;;
37279;Laerm;7458;49.002;8.472;2022-07-26T03:00:25;43.83;40.98;49.16;;
37279;Laerm;7458;49.002;8.472;2022-07-26T03:02:51;43.52;39.68;49.24;;
37279;Laerm;7458;49.002;8.472;2022-07-26T03:05:18;44.96;40.43;54.43;;
37279;Laerm;7458;49.002;8.472;2022-07-26T03:07:44;44.27;40.98;49.28;;
37279;Laerm;7458;49.002;8.472;2022-07-26T03:10:11;44.27;40.89;55.99;;
37279;Laerm;7458;49.002;8.472;2022-07-26T03:12:37;44.48;41.38;50.30;;
37279;Laerm;7458;49.002;8.472;2022-07-26T03:15:03;44.63;41.22;64.80;;
37279;Laerm;7458;49.002;8.472;2022-07-26T03:17:29;49.17;40.53;65.04;;
37279;Laerm;7458;49.002;8.472;2022-07-26T03:19:54;44.97;41.68;63.09;;
37279;Laerm;7458;49.002;8.472;2022-07-26T03:22:20;44.57;41.89;59.25;;
37279;Laerm;7458;49.002;8.472;2022-07-26T03:24:46;52.74;42.09;70.33;;
37279;Laerm;7458;49.002;8.472;2022-07-26T03:27:12;45.10;41.75;55.25;;
37279;Laerm;7458;49.002;8.472;2022-07-26T03:29:38;45.27;42.65;54.69;;
37279;Laerm;7458;49.002;8.472;2022-07-26T03:32:04;47.14;42.59;58.17;;
37279;Laerm;7458;49.002;8.472;2022-07-26T03:34:30;52.12;42.35;70.34;;
37279;Laerm;7458;49.002;8.472;2022-07-26T03:36:56;49.12;42.09;64.30;;
37279;Laerm;7458;49.002;8.472;2022-07-26T03:39:21;48.79;42.65;66.13;;
37279;Laerm;7458;49.002;8.472;2022-07-26T03:41:47;49.61;42.29;68.27;;
37279;Laerm;7458;49.002;8.472;2022-07-26T03:44:13;49.03;41.75;63.82;;
37279;Laerm;7458;49.002;8.472;2022-07-26T03:46:38;45.30;42.13;62.47;;
37279;Laerm;7458;49.002;8.472;2022-07-26T03:49:04;47.83;42.64;61.06;;
37279;Laerm;7458;49.002;8.472;2022-07-26T03:51:30;51.14;42.53;73.22;;
37279;Laerm;7458;49.002;8.472;2022-07-26T03:53:58;49.29;41.30;66.40;;
37279;Laerm;7458;49.002;8.472;2022-07-26T03:56:24;44.74;41.55;53.79;;
37279;Laerm;7458;49.002;8.472;2022-07-26T03:59:03;52.53;40.62;75.14;;
37279;Laerm;7458;49.002;8.472;2022-07-26T04:01:30;44.81;41.22;61.50;;
37279;Laerm;7458;49.002;8.472;2022-07-26T04:03:57;44.80;41.75;53.16;;
37279;Laerm;7458;49.002;8.472;2022-07-26T04:06:23;48.37;40.71;59.65;;
37279;Laerm;7458;49.002;8.472;2022-07-26T04:08:49;45.77;41.14;65.64;;
37279;Laerm;7458;49.002;8.472;2022-07-26T04:11:15;45.32;40.62;61.06;;
37279;Laerm;7458;49.002;8.472;2022-07-26T04:13:40;45.77;41.75;66.05;;
37279;Laerm;7458;49.002;8.472;2022-07-26T04:16:07;45.50;41.61;57.96;;
37279;Laerm;7458;49.002;8.472;2022-07-26T04:18:33;46.75;42.35;58.73;;
37279;Laerm;7458;49.002;8.472;2022-07-26T04:20:59;46.56;42.29;69.36;;
37279;Laerm;7458;49.002;8.472;2022-07-26T04:23:25;53.29;41.96;73.06;;
37279;Laerm;7458;49.002;8.472;2022-07-26T04:25:51;45.18;41.61;51.60;;
37279;Laerm;7458;49.002;8.472;2022-07-26T04:28:16;46.17;42.47;56.18;;
37279;Laerm;7458;49.002;8.472;2022-07-26T04:30:43;47.32;42.35;65.71;;
37279;Laerm;7458;49.002;8.472;2022-07-26T04:33:09;47.92;42.65;70.26;;
37279;Laerm;7458;49.002;8.472;2022-07-26T04:35:35;46.63;42.64;56.02;;
37279;Laerm;7458;49.002;8.472;2022-07-26T04:38:01;48.41;42.53;64.65;;
37279;Laerm;7458;49.002;8.472;2022-07-26T04:40:29;53.80;42.71;70.74;;
37279;Laerm;7458;49.002;8.472;2022-07-26T04:42:59;45.91;41.96;54.70;;
37279;Laerm;7458;49.002;8.472;2022-07-26T04:45:25;51.69;42.65;68.47;;
37279;Laerm;7458;49.002;8.472;2022-07-26T04:47:51;48.83;42.93;64.43;;
37279;Laerm;7458;49.002;8.472;2022-07-26T04:50:19;50.49;43.29;64.26;;
37279;Laerm;7458;49.002;8.472;2022-07-26T04:52:46;56.90;42.41;76.54;;
37279;Laerm;7458;49.002;8.472;2022-07-26T04:55:12;47.23;42.65;63.51;;
37279;Laerm;7458;49.002;8.472;2022-07-26T04:57:38;48.62;42.93;63.63;;
37279;Laerm;7458;49.002;8.472;2022-07-26T05:00:09;50.64;42.59;69.12;;
37279;Laerm;7458;49.002;8.472;2022-07-26T05:02:35;47.78;42.76;69.28;;
37279;Laerm;7458;49.002;8.472;2022-07-26T05:05:02;53.11;42.47;70.23;;
37279;Laerm;7458;49.002;8.472;2022-07-26T05:07:27;52.72;42.93;76.38;;
37279;Laerm;7458;49.002;8.472;2022-07-26T05:09:53;53.67;42.47;79.62;;
37279;Laerm;7458;49.002;8.472;2022-07-26T05:12:19;52.03;41.96;69.43;;
37279;Laerm;7458;49.002;8.472;2022-07-26T05:14:44;49.77;42.65;64.51;;
37279;Laerm;7458;49.002;8.472;2022-07-26T05:17:10;54.99;42.88;73.79;;
37279;Laerm;7458;49.002;8.472;2022-07-26T05:19:36;52.67;42.76;68.14;;
37279;Laerm;7458;49.002;8.472;2022-07-26T05:22:02;56.75;42.16;79.88;;
37279;Laerm;7458;49.002;8.472;2022-07-26T05:24:28;49.98;43.09;67.47;;
37279;Laerm;7458;49.002;8.472;2022-07-26T05:26:54;49.74;43.14;72.51;;
37279;Laerm;7458;49.002;8.472;2022-07-26T05:29:20;55.91;42.59;72.05;;
37279;Laerm;7458;49.002;8.472;2022-07-26T05:31:45;55.14;44.39;72.86;;
37279;Laerm;7458;49.002;8.472;2022-07-26T05:34:11;52.50;43.14;68.52;;
37279;Laerm;7458;49.002;8.472;2022-07-26T05:36:38;53.44;43.44;70.97;;
37279;Laerm;7458;49.002;8.472;2022-07-26T05:39:03;53.46;43.54;75.95;;
37279;Laerm;7458;49.002;8.472;2022-07-26T05:41:29;53.73;42.93;70.02;;
37279;Laerm;7458;49.002;8.472;2022-07-26T05:43:55;53.15;43.58;72.13;;
37279;Laerm;7458;49.002;8.472;2022-07-26T05:46:21;59.57;42.71;84.80;;
37279;Laerm;7458;49.002;8.472;2022-07-26T05:48:46;56.43;42.53;74.34;;
37279;Laerm;7458;49.002;8.472;2022-07-26T05:51:12;54.49;43.44;75.00;;
37279;Laerm;7458;49.002;8.472;2022-07-26T05:53:38;52.03;43.44;69.43;;
37279;Laerm;7458;49.002;8.472;2022-07-26T05:56:05;57.50;43.49;74.15;;
37279;Laerm;7458;49.002;8.472;2022-07-26T05:58:31;54.68;42.93;76.42;;
37279;Laerm;7458;49.002;8.472;2022-07-26T06:00:57;51.00;42.09;70.59;;
37279;Laerm;7458;49.002;8.472;2022-07-26T06:03:22;53.17;41.06;70.34;;
37279;Laerm;7458;49.002;8.472;2022-07-26T06:05:57;55.73;41.75;76.12;;
37279;Laerm;7458;49.002;8.472;2022-07-26T06:08:25;51.87;41.96;75.71;;
37279;Laerm;7458;49.002;8.472;2022-07-26T06:10:51;51.58;42.59;67.06;;
37279;Laerm;7458;49.002;8.472;2022-07-26T06:13:17;60.21;43.54;84.54;;
37279;Laerm;7458;49.002;8.472;2022-07-26T06:15:45;59.91;41.96;81.72;;
37279;Laerm;7458;49.002;8.472;2022-07-26T06:18:11;52.72;42.64;67.50;;
37279;Laerm;7458;49.002;8.472;2022-07-26T06:20:43;55.12;43.77;71.30;;
37279;Laerm;7458;49.002;8.472;2022-07-26T06:23:09;52.52;43.72;70.87;;
37279;Laerm;7458;49.002;8.472;2022-07-26T06:25:35;54.72;43.90;72.40;;
37279;Laerm;7458;49.002;8.472;2022-07-26T06:28:06;50.09;42.59;65.14;;
37279;Laerm;7458;49.002;8.472;2022-07-26T06:30:37;52.99;42.35;69.64;;
37279;Laerm;7458;49.002;8.472;2022-07-26T06:33:03;54.01;42.93;79.78;;
37279;Laerm;7458;49.002;8.472;2022-07-26T06:35:29;53.36;42.35;73.80;;
37279;Laerm;7458;49.002;8.472;2022-07-26T06:37:57;61.35;44.76;74.37;;
37279;Laerm;7458;49.002;8.472;2022-07-26T06:40:25;53.31;43.09;77.01;;
37279;Laerm;7458;49.002;8.472;2022-07-26T06:42:51;50.76;42.03;76.11;;
37279;Laerm;7458;49.002;8.472;2022-07-26T06:45:17;54.02;43.04;73.10;;
37279;Laerm;7458;49.002;8.472;2022-07-26T06:47:43;59.03;43.72;75.07;;
37279;Laerm;7458;49.002;8.472;2022-07-26T06:50:09;55.73;43.19;79.61;;
37279;Laerm;7458;49.002;8.472;2022-07-26T06:52:35;48.52;43.24;70.43;;
37279;Laerm;7458;49.002;8.472;2022-07-26T06:55:01;49.02;42.64;63.51;;
37279;Laerm;7458;49.002;8.472;2022-07-26T06:57:27;50.39;42.98;68.47;;
37279;Laerm;7458;49.002;8.472;2022-07-26T06:59:53;47.82;43.09;74.90;;
37279;Laerm;7458;49.002;8.472;2022-07-26T07:02:19;47.01;41.96;59.03;;
37279;Laerm;7458;49.002;8.472;2022-07-26T07:04:48;55.51;43.24;69.55;;
37279;Laerm;7458;49.002;8.472;2022-07-26T07:07:14;54.17;42.88;79.62;;
37279;Laerm;7458;49.002;8.472;2022-07-26T07:09:39;50.97;43.24;69.96;;
37279;Laerm;7458;49.002;8.472;2022-07-26T07:12:06;57.10;42.53;74.67;;
37279;Laerm;7458;49.002;8.472;2022-07-26T07:14:33;52.64;42.47;66.14;;
37279;Laerm;7458;49.002;8.472;2022-07-26T07:16:59;52.02;42.88;69.30;;
37279;Laerm;7458;49.002;8.472;2022-07-26T07:19:25;52.88;43.24;68.86;;
37279;Laerm;7458;49.002;8.472;2022-07-26T07:21:51;51.10;41.96;66.80;;
37279;Laerm;7458;49.002;8.472;2022-07-26T07:24:17;47.80;41.96;69.93;;
37279;Laerm;7458;49.002;8.472;2022-07-26T07:26:43;55.20;41.89;72.37;;
37279;Laerm;7458;49.002;8.472;2022-07-26T07:29:10;51.58;42.30;63.82;;
37279;Laerm;7458;49.002;8.472;2022-07-26T07:31:40;47.80;42.98;67.27;;
37279;Laerm;7458;49.002;8.472;2022-07-26T07:34:06;50.44;42.95;76.40;;
37279;Laerm;7458;49.002;8.472;2022-07-26T07:36:33;47.48;42.16;61.14;;
37279;Laerm;7458;49.002;8.472;2022-07-26T07:38:58;50.30;42.47;64.89;;
37279;Laerm;7458;49.002;8.472;2022-07-26T07:41:24;50.91;43.04;65.07;;
37279;Laerm;7458;49.002;8.472;2022-07-26T07:43:50;51.26;43.24;66.95;;
37279;Laerm;7458;49.002;8.472;2022-07-26T07:46:16;51.53;41.82;71.57;;
37279;Laerm;7458;49.002;8.472;2022-07-26T07:48:41;50.43;42.22;62.75;;
37279;Laerm;7458;49.002;8.472;2022-07-26T07:51:08;50.88;42.41;65.56;;
37279;Laerm;7458;49.002;8.472;2022-07-26T07:53:34;49.17;42.88;62.43;;
37279;Laerm;7458;49.002;8.472;2022-07-26T07:56:00;52.20;42.71;70.61;;
37279;Laerm;7458;49.002;8.472;2022-07-26T07:58:26;54.53;42.65;76.18;;
37279;Laerm;7458;49.002;8.472;2022-07-26T08:00:52;51.34;43.54;72.41;;
37279;Laerm;7458;49.002;8.472;2022-07-26T08:03:18;52.41;43.44;64.67;;
37279;Laerm;7458;49.002;8.472;2022-07-26T08:05:48;47.95;42.24;63.49;;
37279;Laerm;7458;49.002;8.472;2022-07-26T08:08:14;48.46;42.76;61.34;;
37279;Laerm;7458;49.002;8.472;2022-07-26T08:10:41;49.04;43.24;61.97;;
37279;Laerm;7458;49.002;8.472;2022-07-26T08:13:07;49.73;43.72;66.50;;
37279;Laerm;7458;49.002;8.472;2022-07-26T08:15:33;51.51;43.54;71.02;;
37279;Laerm;7458;49.002;8.472;2022-07-26T08:17:58;48.11;43.04;58.15;;
37279;Laerm;7458;49.002;8.472;2022-07-26T08:20:24;53.90;44.47;65.14;;
37279;Laerm;7458;49.002;8.472;2022-07-26T08:22:51;49.56;43.29;62.49;;
37279;Laerm;7458;49.002;8.472;2022-07-26T08:25:16;52.05;44.51;69.54;;
37279;Laerm;7458;49.002;8.472;2022-07-26T08:27:42;52.10;42.98;79.69;;
37279;Laerm;7458;49.002;8.472;2022-07-26T08:30:09;51.01;42.59;70.74;;
37279;Laerm;7458;49.002;8.472;2022-07-26T08:32:35;55.13;43.19;75.51;;
37279;Laerm;7458;49.002;8.472;2022-07-26T08:35:01;53.67;43.90;69.58;;
37279;Laerm;7458;49.002;8.472;2022-07-26T08:37:26;55.16;44.08;69.38;;
37279;Laerm;7458;49.002;8.472;2022-07-26T08:39:52;63.80;45.51;81.17;;
37279;Laerm;7458;49.002;8.472;2022-07-26T08:42:20;54.11;44.11;65.65;;
37279;Laerm;7458;49.002;8.472;2022-07-26T08:44:50;57.31;43.34;75.59;;
37279;Laerm;7458;49.002;8.472;2022-07-26T08:47:18;49.68;42.41;62.82;;
37279;Laerm;7458;49.002;8.472;2022-07-26T08:49:45;50.81;44.11;65.40;;
37279;Laerm;7458;49.002;8.472;2022-07-26T08:52:13;54.02;43.63;70.35;;
37279;Laerm;7458;49.002;8.472;2022-07-26T08:54:48;53.69;43.34;80.12;;
37279;Laerm;7458;49.002;8.472;2022-07-26T08:57:15;53.12;42.22;66.47;;
37279;Laerm;7458;49.002;8.472;2022-07-26T08:59:42;53.39;45.83;68.81;;
37279;Laerm;7458;49.002;8.472;2022-07-26T09:02:11;54.24;44.54;74.95;;
37279;Laerm;7458;49.002;8.472;2022-07-26T09:04:41;51.43;42.88;69.07;;
37279;Laerm;7458;49.002;8.472;2022-07-26T09:07:16;50.10;43.58;65.20;;
37279;Laerm;7458;49.002;8.472;2022-07-26T09:10:03;51.49;43.54;69.64;;
37279;Laerm;7458;49.002;8.472;2022-07-26T09:12:31;54.19;43.63;68.21;;
37279;Laerm;7458;49.002;8.472;2022-07-26T09:14:58;53.50;43.99;73.92;;
37279;Laerm;7458;49.002;8.472;2022-07-26T09:17:44;49.91;43.58;67.13;;
37279;Laerm;7458;49.002;8.472;2022-07-26T09:20:13;51.86;43.58;65.48;;
37279;Laerm;7458;49.002;8.472;2022-07-26T09:23:09;53.12;41.68;73.34;;
37279;Laerm;7458;49.002;8.472;2022-07-26T09:25:43;48.14;42.76;65.86;;
37279;Laerm;7458;49.002;8.472;2022-07-26T09:28:30;55.48;42.65;82.25;;
37279;Laerm;7458;49.002;8.472;2022-07-26T09:30:59;50.69;43.44;65.95;;
37279;Laerm;7458;49.002;8.472;2022-07-26T09:33:42;50.33;42.64;73.40;;
37279;Laerm;7458;49.002;8.472;2022-07-26T09:36:08;51.28;42.35;64.88;;
37279;Laerm;7458;49.002;8.472;2022-07-26T09:41:40;49.98;41.22;64.41;;
37279;Laerm;7458;49.002;8.472;2022-07-26T09:44:24;47.97;41.53;70.19;;
37279;Laerm;7458;49.002;8.472;2022-07-26T09:46:52;49.94;42.41;74.30;;
37279;Laerm;7458;49.002;8.472;2022-07-26T09:49:21;51.70;42.09;74.65;;
37279;Laerm;7458;49.002;8.472;2022-07-26T09:51:50;50.89;43.86;63.53;;
37279;Laerm;7458;49.002;8.472;2022-07-26T09:54:32;52.29;43.34;69.44;;
37279;Laerm;7458;49.002;8.472;2022-07-26T09:57:00;54.54;43.81;84.44;;
37279;Laerm;7458;49.002;8.472;2022-07-26T09:59:28;49.95;41.89;73.70;;
37279;Laerm;7458;49.002;8.472;2022-07-26T10:01:57;49.87;41.68;65.54;;
37279;Laerm;7458;49.002;8.472;2022-07-26T10:04:24;54.74;42.93;85.90;;
37279;Laerm;7458;49.002;8.472;2022-07-26T10:06:51;52.57;43.14;64.60;;
37279;Laerm;7458;49.002;8.472;2022-07-26T10:09:18;53.69;43.04;66.81;;
37279;Laerm;7458;49.002;8.472;2022-07-26T10:12:13;50.85;41.82;74.81;;
37279;Laerm;7458;49.002;8.472;2022-07-26T10:19:56;59.01;42.71;65.27;;
37279;Laerm;7458;49.002;8.472;2022-07-26T10:22:31;60.85;43.81;84.94;;
37279;Laerm;7458;49.002;8.472;2022-07-26T10:27:56;61.00;44.97;66.23;;
37279;Laerm;7458;49.002;8.472;2022-07-26T10:30:25;61.07;51.55;65.74;;
37279;Laerm;7458;49.002;8.472;2022-07-26T10:35:37;62.76;52.39;72.76;;
37279;Laerm;7458;49.002;8.472;2022-07-26T10:38:25;63.80;45.72;76.53;;
37279;Laerm;7458;49.002;8.472;2022-07-26T10:41:04;57.59;50.03;69.97;;
37279;Laerm;7458;49.002;8.472;2022-07-26T10:43:32;60.35;43.58;74.21;;
37279;Laerm;7458;49.002;8.472;2022-07-26T10:49:04;62.71;53.30;77.03;;
37279;Laerm;7458;49.002;8.472;2022-07-26T10:51:39;65.36;45.04;81.59;;
37279;Laerm;7458;49.002;8.472;2022-07-26T10:54:09;64.96;47.42;69.80;;
37279;Laerm;7458;49.002;8.472;2022-07-26T10:56:35;60.17;44.19;76.42;;
37279;Laerm;7458;49.002;8.472;2022-07-26T10:59:04;63.96;44.83;73.63;;
37279;Laerm;7458;49.002;8.472;2022-07-26T11:01:39;65.36;44.76;69.45;;
37279;Laerm;7458;49.002;8.472;2022-07-26T11:04:22;64.85;43.49;70.16;;
37279;Laerm;7458;49.002;8.472;2022-07-26T11:06:48;65.56;44.07;70.53;;
37279;Laerm;7458;49.002;8.472;2022-07-26T11:09:14;67.27;55.38;76.60;;
37279;Laerm;7458;49.002;8.472;2022-07-26T11:11:40;65.00;55.76;69.69;;
37279;Laerm;7458;49.002;8.472;2022-07-26T11:14:10;63.04;53.42;68.87;;
37279;Laerm;7458;49.002;8.472;2022-07-26T11:16:42;61.13;49.40;72.53;;
37279;Laerm;7458;49.002;8.472;2022-07-26T11:19:22;66.22;46.59;72.60;;
37279;Laerm;7458;49.002;8.472;2022-07-26T11:22:01;62.06;53.66;74.02;;
37279;Laerm;7458;49.002;8.472;2022-07-26T11:24:27;61.66;43.14;67.77;;
37279;Laerm;7458;49.002;8.472;2022-07-26T11:26:53;64.92;48.48;74.83;;
37279;Laerm;7458;49.002;8.472;2022-07-26T11:29:28;66.81;43.94;80.02;;
37279;Laerm;7458;49.002;8.472;2022-07-26T11:31:54;59.74;42.53;67.24;;
37279;Laerm;7458;49.002;8.472;2022-07-26T11:34:23;53.23;43.63;66.30;;
37279;Laerm;7458;49.002;8.472;2022-07-26T11:36:52;52.88;42.16;69.61;;
37279;Laerm;7458;49.002;8.472;2022-07-26T11:41:48;53.15;42.93;82.43;;
37279;Laerm;7458;49.002;8.472;2022-07-26T11:44:21;54.33;43.58;68.39;;
37279;Laerm;7458;49.002;8.472;2022-07-26T11:46:48;59.20;44.35;80.07;;
37279;Laerm;7458;49.002;8.472;2022-07-26T11:51:54;54.89;43.24;68.72;;
37279;Laerm;7458;49.002;8.472;2022-07-26T11:54:23;58.40;45.01;73.17;;
37279;Laerm;7458;49.002;8.472;2022-07-26T11:56:56;53.36;43.72;66.32;;
37279;Laerm;7458;49.002;8.472;2022-07-26T11:59:28;54.92;43.81;71.78;;
37279;Laerm;7458;49.002;8.472;2022-07-26T12:01:56;57.42;43.19;74.54;;
37279;Laerm;7458;49.002;8.472;2022-07-26T12:04:28;47.22;41.89;67.43;;
37279;Laerm;7458;49.002;8.472;2022-07-26T12:06:56;45.91;42.22;57.16;;
37279;Laerm;7458;49.002;8.472;2022-07-26T12:09:40;47.77;40.33;63.96;;
37279;Laerm;7458;49.002;8.472;2022-07-26T12:12:28;50.83;41.53;65.74;;
37279;Laerm;7458;49.002;8.472;2022-07-26T12:15:05;51.97;42.59;69.70;;
37279;Laerm;7458;49.002;8.472;2022-07-26T12:17:32;54.30;42.82;71.78;;
37279;Laerm;7458;49.002;8.472;2022-07-26T12:20:14;48.15;43.14;65.76;;
37279;Laerm;7458;49.002;8.472;2022-07-26T12:22:54;52.28;43.04;64.97;;
37279;Laerm;7458;49.002;8.472;2022-07-26T12:25:28;49.67;42.76;64.83;;
37279;Laerm;7458;49.002;8.472;2022-07-26T12:27:54;54.60;43.24;70.51;;
37279;Laerm;7458;49.002;8.472;2022-07-26T12:30:21;46.63;41.89;61.96;;
37279;Laerm;7458;49.002;8.472;2022-07-26T12:32:48;47.19;42.41;62.46;;
37279;Laerm;7458;49.002;8.472;2022-07-26T12:35:32;50.99;43.34;62.68;;
37279;Laerm;7458;49.002;8.472;2022-07-26T12:38:00;54.39;42.03;69.65;;
37279;Laerm;7458;49.002;8.472;2022-07-26T12:40:39;61.87;42.93;83.43;;
37279;Laerm;7458;49.002;8.472;2022-07-26T12:43:05;54.46;42.35;80.24;;
37279;Laerm;7458;49.002;8.472;2022-07-26T12:45:34;51.75;42.41;67.85;;
37279;Laerm;7458;49.002;8.472;2022-07-26T12:48:07;49.77;40.71;65.07;;
37279;Laerm;7458;49.002;8.472;2022-07-26T12:50:37;49.24;42.09;68.17;;
37279;Laerm;7458;49.002;8.472;2022-07-26T12:53:08;61.24;42.93;80.28;;
37279;Laerm;7458;49.002;8.472;2022-07-26T12:55:34;51.22;42.22;67.66;;
37279;Laerm;7458;49.002;8.472;2022-07-26T12:58:00;55.27;43.63;71.52;;
37279;Laerm;7458;49.002;8.472;2022-07-26T13:00:27;53.47;43.60;67.85;;
37279;Laerm;7458;49.002;8.472;2022-07-26T13:02:53;50.39;42.76;72.34;;
37279;Laerm;7458;49.002;8.472;2022-07-26T13:05:20;48.85;42.82;67.25;;
37279;Laerm;7458;49.002;8.472;2022-07-26T13:07:46;52.46;42.65;66.22;;
37279;Laerm;7458;49.002;8.472;2022-07-26T13:10:12;53.25;41.89;67.23;;
37279;Laerm;7458;49.002;8.472;2022-07-26T13:12:39;51.32;40.53;71.25;;
37279;Laerm;7458;49.002;8.472;2022-07-26T13:15:06;51.39;42.03;65.57;;
37279;Laerm;7458;49.002;8.472;2022-07-26T13:17:32;48.53;42.41;63.36;;
37279;Laerm;7458;49.002;8.472;2022-07-26T13:19:58;48.10;41.96;65.68;;
37279;Laerm;7458;49.002;8.472;2022-07-26T13:22:24;53.37;43.44;75.73;;
37279;Laerm;7458;49.002;8.472;2022-07-26T13:24:49;55.95;43.24;81.60;;
37279;Laerm;7458;49.002;8.472;2022-07-26T13:27:15;53.11;43.09;67.83;;
37279;Laerm;7458;49.002;8.472;2022-07-26T13:29:41;52.13;41.53;62.89;;
37279;Laerm;7458;49.002;8.472;2022-07-26T13:32:07;55.85;43.09;69.57;;
37279;Laerm;7458;49.002;8.472;2022-07-26T13:34:33;57.32;41.75;76.73;;
37279;Laerm;7458;49.002;8.472;2022-07-26T13:36:59;54.10;41.89;69.50;;
37279;Laerm;7458;49.002;8.472;2022-07-26T13:39:25;60.04;42.03;79.43;;
37279;Laerm;7458;49.002;8.472;2022-07-26T13:41:52;51.50;42.59;74.00;;
37279;Laerm;7458;49.002;8.472;2022-07-26T13:44:19;54.79;42.03;73.21;;
37279;Laerm;7458;49.002;8.472;2022-07-26T13:46:44;48.87;41.26;62.55;;
37279;Laerm;7458;49.002;8.472;2022-07-26T13:49:10;63.67;44.11;88.75;;
37279;Laerm;7458;49.002;8.472;2022-07-26T13:51:38;58.04;44.11;81.96;;
37279;Laerm;7458;49.002;8.472;2022-07-26T13:54:33;62.61;42.35;88.24;;
37279;Laerm;7458;49.002;8.472;2022-07-26T13:57:02;52.59;42.93;68.88;;
37279;Laerm;7458;49.002;8.472;2022-07-26T13:59:28;53.16;41.53;68.77;;
37279;Laerm;7458;49.002;8.472;2022-07-26T14:01:55;53.69;43.14;82.26;;
37279;Laerm;7458;49.002;8.472;2022-07-26T14:04:21;51.73;43.19;68.35;;
37279;Laerm;7458;49.002;8.472;2022-07-26T14:06:48;58.78;42.09;76.65;;
37279;Laerm;7458;49.002;8.472;2022-07-26T14:09:15;50.91;42.71;71.61;;
37279;Laerm;7458;49.002;8.472;2022-07-26T14:11:41;55.52;43.29;72.74;;
37279;Laerm;7458;49.002;8.472;2022-07-26T14:14:08;52.02;42.76;79.99;;
37279;Laerm;7458;49.002;8.472;2022-07-26T14:16:34;53.84;41.68;69.01;;
37279;Laerm;7458;49.002;8.472;2022-07-26T14:19:00;48.56;42.47;67.07;;
37279;Laerm;7458;49.002;8.472;2022-07-26T14:21:28;52.52;42.88;70.08;;
37279;Laerm;7458;49.002;8.472;2022-07-26T14:23:56;52.60;44.59;64.57;;